Time;durP1;ratioP1;P1;durP2;ratioP2;P2;SDS_P1;SDS_P2;PMS_P1;PMS_P2;Temp;Humidity;BMP_temperature;BMP_pressure;BME280_temperature;BME280_humidity;BME280_pressure;Samples;Min_cycle;Max_cycle;Signal;HPM_P1;HPM_P2
2022/07/06 00:01:56;;;;;;;15.15;3.28;;;13.90;99.90;;;;;;5029243;28;20021;-67
2022/07/06 00:04:23;;;;;;;11.27;2.25;;;14.00;99.90;;;;;;5047157;28;20526;-67
2022/07/06 00:06:51;;;;;;;10.70;1.95;;;14.00;99.70;;;;;;5047006;28;20041;-67
2022/07/06 00:09:18;;;;;;;8.88;1.85;;;14.00;99.50;;;;;;5029385;28;20120;-67
2022/07/06 00:11:45;;;;;;;9.15;2.80;;;14.00;99.40;;;;;;5035881;28;20493;-66
2022/07/06 00:14:13;;;;;;;11.18;2.15;;;14.00;99.40;;;;;;5036596;28;20505;-66
2022/07/06 00:16:40;;;;;;;11.20;2.35;;;14.00;99.30;;;;;;5038095;28;20072;-67
2022/07/06 00:19:07;;;;;;;5.38;1.70;;;14.00;99.30;;;;;;5037192;28;20017;-66
2022/07/06 00:21:34;;;;;;;6.95;1.85;;;14.00;99.30;;;;;;5038391;28;20036;-68
2022/07/06 00:24:02;;;;;;;11.52;3.03;;;14.00;99.30;;;;;;5043562;28;20053;-67
2022/07/06 00:26:29;;;;;;;10.32;2.13;;;14.00;99.10;;;;;;5039278;28;20036;-68
2022/07/06 00:28:56;;;;;;;7.63;1.58;;;14.10;99.00;;;;;;5039830;28;20009;-69
2022/07/06 00:31:23;;;;;;;13.60;2.08;;;14.10;99.20;;;;;;5039848;28;20085;-70
2022/07/06 00:33:50;;;;;;;8.23;3.55;;;14.10;99.60;;;;;;5040665;28;20029;-68
2022/07/06 00:36:18;;;;;;;15.27;4.63;;;14.20;99.70;;;;;;5039524;28;20082;-68
2022/07/06 00:38:45;;;;;;;10.63;2.92;;;14.30;99.90;;;;;;5041960;28;20028;-69
2022/07/06 00:41:14;;;;;;;13.73;3.70;;;14.40;99.90;;;;;;5038625;28;20024;-69
2022/07/06 00:43:55;;;;;;;13.00;3.38;;;14.40;99.50;;;;;;5038038;28;20021;-69
2022/07/06 00:46:32;;;;;;;14.35;3.95;;;14.60;99.80;;;;;;5042254;28;20112;-68
2022/07/06 00:49:00;;;;;;;11.13;2.97;;;14.60;99.90;;;;;;5038693;28;20486;-69
2022/07/06 00:51:32;;;;;;;11.52;2.15;;;14.70;99.50;;;;;;5041686;28;20111;-68
2022/07/06 00:54:02;;;;;;;9.90;1.90;;;14.70;99.40;;;;;;5056004;28;20013;-68
2022/07/06 00:56:31;;;;;;;16.63;2.97;;;14.80;99.50;;;;;;5036432;28;20102;-70
2022/07/06 00:59:02;;;;;;;11.13;1.85;;;14.90;99.40;;;;;;5028830;28;20028;-70
2022/07/06 01:01:30;;;;;;;8.43;2.45;;;15.00;99.80;;;;;;5026157;28;20030;-70
2022/07/06 01:03:57;;;;;;;9.75;2.60;;;15.10;99.40;;;;;;5026235;28;20138;-69
2022/07/06 01:06:26;;;;;;;10.93;1.75;;;15.10;99.30;;;;;;5025631;28;20053;-69
2022/07/06 01:08:54;;;;;;;14.25;1.95;;;15.10;98.90;;;;;;5038938;28;20020;-68
2022/07/06 01:11:21;;;;;;;7.93;2.53;;;15.00;98.60;;;;;;5050154;28;20393;-69
2022/07/06 01:13:50;;;;;;;5.45;2.20;;;15.00;98.30;;;;;;5048704;28;20096;-69
2022/07/06 01:16:18;;;;;;;17.35;3.08;;;14.90;98.80;;;;;;5027927;28;20131;-68
2022/07/06 01:18:45;;;;;;;11.20;2.92;;;14.90;99.10;;;;;;5036826;28;20104;-69
2022/07/06 01:21:14;;;;;;;14.73;2.10;;;15.00;99.50;;;;;;5032638;28;20397;-69
2022/07/06 01:23:43;;;;;;;13.02;2.88;;;15.00;99.70;;;;;;5034913;28;20081;-68
2022/07/06 01:26:17;;;;;;;11.75;1.95;;;15.10;99.70;;;;;;5042254;28;20033;-69
2022/07/06 01:28:45;;;;;;;11.50;2.58;;;15.20;99.50;;;;;;5041624;28;20108;-70
2022/07/06 01:31:19;;;;;;;12.18;2.42;;;15.20;99.50;;;;;;5048868;28;20105;-68
2022/07/06 01:33:48;;;;;;;13.73;1.70;;;15.20;99.30;;;;;;5039712;28;20524;-67
2022/07/06 01:36:16;;;;;;;8.43;2.20;;;15.10;98.60;;;;;;5031764;28;20082;-70
2022/07/06 01:38:51;;;;;;;11.48;2.45;;;15.10;99.50;;;;;;5028485;28;20036;-71
2022/07/06 01:41:19;;;;;;;16.40;2.05;;;15.10;99.50;;;;;;5028287;28;20136;-68
2022/07/06 01:43:47;;;;;;;12.80;2.20;;;15.10;99.50;;;;;;5045499;28;20055;-67
2022/07/06 01:46:14;;;;;;;7.10;1.73;;;15.10;99.30;;;;;;5033216;28;20163;-65
2022/07/06 01:48:42;;;;;;;15.43;2.13;;;15.10;99.00;;;;;;5041037;28;20031;-68
2022/07/06 01:51:10;;;;;;;18.33;4.50;;;15.10;98.90;;;;;;5039943;28;20025;-68
2022/07/06 01:53:37;;;;;;;17.38;5.03;;;15.30;98.50;;;;;;5042447;28;20025;-69
2022/07/06 01:56:04;;;;;;;9.68;3.65;;;15.40;98.40;;;;;;5046736;28;20025;-69
2022/07/06 01:58:32;;;;;;;9.80;2.00;;;15.40;97.70;;;;;;5050464;28;20029;-69
2022/07/06 02:01:00;;;;;;;11.02;2.70;;;15.50;98.00;;;;;;5046426;28;20060;-69
2022/07/06 02:03:28;;;;;;;10.55;2.75;;;15.60;98.20;;;;;;5047256;28;20017;-68
2022/07/06 02:05:55;;;;;;;10.43;2.10;;;15.70;98.00;;;;;;5041756;28;21013;-70
2022/07/06 02:08:22;;;;;;;18.00;3.20;;;15.70;97.30;;;;;;5048318;28;20033;-70
2022/07/06 02:10:49;;;;;;;14.35;3.50;;;15.80;97.90;;;;;;5046507;28;20127;-70
2022/07/06 02:13:17;;;;;;;10.70;2.00;;;15.90;97.60;;;;;;5043858;28;20029;-68
2022/07/06 02:15:44;;;;;;;14.02;1.40;;;15.90;97.10;;;;;;5047982;28;20021;-66
2022/07/06 02:18:11;;;;;;;14.60;2.78;;;15.80;97.20;;;;;;5043921;28;20047;-66
2022/07/06 02:20:38;;;;;;;11.32;1.38;;;15.80;96.80;;;;;;5041745;28;20148;-68
2022/07/06 02:23:06;;;;;;;10.07;1.77;;;15.90;96.70;;;;;;5051413;28;20029;-68
2022/07/06 02:25:33;;;;;;;8.35;1.77;;;15.80;96.10;;;;;;5047657;28;20024;-69
2022/07/06 02:28:00;;;;;;;16.25;2.00;;;15.90;95.50;;;;;;5046376;28;20033;-66
2022/07/06 02:30:27;;;;;;;9.15;1.75;;;15.90;95.40;;;;;;5045073;28;20028;-67
2022/07/06 02:32:55;;;;;;;8.00;1.67;;;15.90;94.60;;;;;;5045661;28;20025;-68
2022/07/06 02:35:22;;;;;;;5.72;1.42;;;15.90;93.50;;;;;;5044380;28;20140;-71
2022/07/06 02:37:49;;;;;;;10.23;1.58;;;16.00;94.40;;;;;;5043628;28;20032;-70
2022/07/06 02:40:16;;;;;;;8.95;2.08;;;16.10;94.10;;;;;;5042148;28;20524;-72
2022/07/06 02:42:44;;;;;;;13.63;1.77;;;16.10;93.80;;;;;;5048422;28;20029;-71
2022/07/06 02:45:12;;;;;;;12.60;1.50;;;16.20;94.00;;;;;;5043768;28;20039;-69
2022/07/06 02:47:40;;;;;;;15.55;1.83;;;16.30;93.00;;;;;;5045533;28;20076;-68
2022/07/06 02:50:07;;;;;;;9.27;1.48;;;16.40;93.70;;;;;;5044324;28;20037;-67
2022/07/06 02:52:35;;;;;;;8.70;2.13;;;16.40;93.50;;;;;;5042621;28;20068;-70
2022/07/06 02:55:02;;;;;;;5.05;1.13;;;16.30;93.30;;;;;;5042397;28;20032;-67
2022/07/06 02:57:29;;;;;;;10.38;1.77;;;16.20;94.10;;;;;;5044271;28;20545;-71
2022/07/06 02:59:56;;;;;;;10.65;1.80;;;16.20;93.30;;;;;;5043779;28;20017;-65
2022/07/06 03:02:24;;;;;;;8.85;1.67;;;16.10;93.60;;;;;;5042422;28;20464;-71
2022/07/06 03:04:51;;;;;;;9.05;2.05;;;16.20;93.20;;;;;;5045811;28;20107;-69
2022/07/06 03:07:22;;;;;;;10.48;1.52;;;16.20;93.10;;;;;;5042544;28;20033;-69
2022/07/06 03:09:49;;;;;;;7.32;1.33;;;16.20;92.20;;;;;;5041689;28;20162;-68
2022/07/06 03:12:16;;;;;;;10.75;1.40;;;16.20;92.60;;;;;;5043696;28;20060;-67
2022/07/06 03:14:44;;;;;;;13.05;1.75;;;16.10;93.10;;;;;;5041074;28;20036;-68
2022/07/06 03:17:14;;;;;;;14.00;1.70;;;16.10;93.30;;;;;;5044523;28;20453;-67
2022/07/06 03:19:42;;;;;;;10.25;1.15;;;15.90;94.00;;;;;;5040874;28;20597;-67
2022/07/06 03:22:09;;;;;;;8.20;1.90;;;15.90;96.10;;;;;;5041236;28;20074;-66
2022/07/06 03:24:36;;;;;;;8.70;1.58;;;15.90;96.50;;;;;;5042699;28;20120;-67
2022/07/06 03:27:04;;;;;;;14.10;3.17;;;15.70;96.40;;;;;;5043982;28;20429;-66
2022/07/06 03:29:31;;;;;;;9.73;1.65;;;15.60;97.00;;;;;;5042380;28;20105;-69
2022/07/06 03:31:59;;;;;;;11.68;1.73;;;15.40;97.80;;;;;;5039855;28;20482;-67
2022/07/06 03:34:26;;;;;;;11.43;1.60;;;15.30;98.00;;;;;;5039551;28;20377;-67
2022/07/06 03:36:53;;;;;;;12.23;2.67;;;15.20;98.80;;;;;;5044168;28;20028;-65
2022/07/06 03:39:20;;;;;;;11.52;3.75;;;15.10;98.80;;;;;;5041167;28;20040;-65
2022/07/06 03:41:47;;;;;;;12.63;2.92;;;15.10;99.00;;;;;;5043682;28;20064;-68
2022/07/06 03:44:15;;;;;;;11.68;4.28;;;15.10;99.10;;;;;;5043712;28;20021;-65
2022/07/06 03:46:42;;;;;;;18.27;4.75;;;15.10;99.20;;;;;;5044803;28;20041;-70
2022/07/06 03:49:10;;;;;;;17.88;3.75;;;15.20;99.70;;;;;;5043445;28;20473;-70
2022/07/06 03:51:37;;;;;;;22.98;8.88;;;15.30;99.10;;;;;;5045077;28;20048;-68
2022/07/06 03:54:05;;;;;;;28.63;7.55;;;15.30;98.80;;;;;;5041481;28;20362;-71
2022/07/06 03:56:32;;;;;;;23.17;5.63;;;15.40;98.70;;;;;;5041257;28;20047;-66
2022/07/06 03:59:02;;;;;;;14.07;3.63;;;15.40;98.40;;;;;;5041790;28;20107;-69
2022/07/06 04:01:29;;;;;;;9.63;2.08;;;15.40;97.90;;;;;;5043848;28;20047;-69
2022/07/06 04:03:57;;;;;;;12.10;3.15;;;15.30;97.60;;;;;;5038618;28;20123;-68
2022/07/06 04:06:25;;;;;;;19.90;2.28;;;15.30;97.90;;;;;;5044217;28;20085;-70
2022/07/06 04:08:52;;;;;;;10.70;2.42;;;15.40;97.50;;;;;;5043267;28;20029;-70
2022/07/06 04:11:19;;;;;;;15.30;3.20;;;15.40;97.50;;;;;;5044282;28;20035;-70
2022/07/06 04:13:47;;;;;;;13.27;1.58;;;15.30;97.70;;;;;;5044491;28;20029;-70
2022/07/06 04:16:14;;;;;;;15.05;1.85;;;15.40;98.10;;;;;;5045839;28;20064;-70
2022/07/06 04:18:42;;;;;;;14.40;1.73;;;15.40;98.00;;;;;;5045471;28;20131;-69
2022/07/06 04:21:09;;;;;;;10.27;1.73;;;15.30;97.70;;;;;;5047096;28;20060;-69
2022/07/06 04:23:36;;;;;;;9.75;2.65;;;15.40;97.40;;;;;;5046438;28;20049;-69
2022/07/06 04:26:03;;;;;;;4.68;1.30;;;15.40;97.40;;;;;;5044584;28;20485;-69
2022/07/06 04:28:33;;;;;;;11.00;1.67;;;15.40;97.10;;;;;;5046731;28;20501;-70
2022/07/06 04:31:01;;;;;;;11.70;2.85;;;15.50;97.10;;;;;;5030433;28;20029;-69
2022/07/06 04:33:28;;;;;;;10.05;1.80;;;15.50;96.90;;;;;;5025196;28;20032;-71
2022/07/06 04:35:55;;;;;;;15.15;1.83;;;15.50;97.00;;;;;;5024097;28;20020;-68
2022/07/06 04:38:22;;;;;;;10.90;2.95;;;15.60;96.90;;;;;;5021168;28;20603;-67
2022/07/06 04:40:50;;;;;;;5.93;1.33;;;15.60;96.60;;;;;;5034997;28;20059;-69
2022/07/06 04:43:17;;;;;;;17.17;2.20;;;15.60;96.70;;;;;;5040802;28;20025;-70
2022/07/06 04:45:44;;;;;;;11.80;1.42;;;15.60;96.20;;;;;;5045872;28;20036;-69
2022/07/06 04:48:11;;;;;;;6.72;1.50;;;15.60;96.00;;;;;;5044104;28;20025;-69
2022/07/06 04:50:38;;;;;;;13.82;2.20;;;15.60;96.10;;;;;;5044567;28;20021;-70
2022/07/06 04:53:06;;;;;;;16.35;2.00;;;15.60;96.20;;;;;;5038110;28;20078;-69
2022/07/06 04:55:33;;;;;;;9.07;1.50;;;15.60;96.20;;;;;;5038017;28;20033;-68
2022/07/06 04:58:01;;;;;;;11.00;2.72;;;15.50;96.30;;;;;;5046387;28;20432;-69
2022/07/06 05:00:29;;;;;;;8.98;1.58;;;15.40;96.80;;;;;;5043725;28;20025;-70
2022/07/06 05:02:56;;;;;;;8.13;1.63;;;15.40;96.50;;;;;;5045994;28;20025;-70
2022/07/06 05:05:24;;;;;;;9.57;1.85;;;15.30;96.30;;;;;;5048034;28;20029;-72
2022/07/06 05:07:51;;;;;;;7.65;1.48;;;15.30;96.60;;;;;;5048330;28;20112;-69
2022/07/06 05:10:18;;;;;;;18.83;1.75;;;15.20;97.00;;;;;;5046099;28;20111;-70
2022/07/06 05:12:45;;;;;;;12.52;1.67;;;15.20;97.20;;;;;;5045271;28;20107;-71
2022/07/06 05:15:13;;;;;;;6.90;1.75;;;15.20;97.20;;;;;;5043341;28;20013;-70
2022/07/06 05:17:43;;;;;;;7.70;1.42;;;15.20;97.10;;;;;;5048468;28;20072;-71
2022/07/06 05:20:10;;;;;;;6.30;1.42;;;15.20;97.20;;;;;;5046086;28;20025;-69
2022/07/06 05:22:37;;;;;;;11.57;1.33;;;15.20;96.90;;;;;;5046875;28;20021;-70
2022/07/06 05:25:05;;;;;;;6.60;1.00;;;15.30;97.10;;;;;;5047029;28;20069;-69
2022/07/06 05:27:32;;;;;;;5.47;1.10;;;15.30;96.70;;;;;;5043489;28;20091;-65
2022/07/06 05:30:00;;;;;;;11.95;1.40;;;15.20;96.90;;;;;;5042149;28;20021;-69
2022/07/06 05:32:27;;;;;;;8.90;1.92;;;15.20;96.80;;;;;;5041519;28;20071;-70
2022/07/06 05:34:54;;;;;;;11.88;2.00;;;15.20;97.00;;;;;;5039712;28;20071;-70
2022/07/06 05:37:21;;;;;;;7.75;1.65;;;15.20;96.80;;;;;;5040934;28;20021;-70
2022/07/06 05:39:50;;;;;;;6.80;1.73;;;15.20;96.90;;;;;;5042115;28;20032;-69
2022/07/06 05:42:18;;;;;;;12.40;1.50;;;15.20;97.00;;;;;;5044189;28;20021;-70
2022/07/06 05:44:45;;;;;;;9.75;2.03;;;15.20;97.40;;;;;;5043548;28;20033;-70
2022/07/06 05:50:12;;;;;;;9.98;2.05;;;15.10;97.10;;;;;;5043072;28;20036;-69
2022/07/06 05:52:41;;;;;;;9.98;1.92;;;15.10;96.90;;;;;;5037551;28;20470;-70
2022/07/06 05:55:10;;;;;;;10.48;2.20;;;15.10;97.20;;;;;;5039674;28;20536;-70
2022/07/06 05:57:37;;;;;;;7.40;1.40;;;15.00;97.50;;;;;;5038642;28;20025;-69
2022/07/06 06:00:06;;;;;;;11.10;1.50;;;15.00;97.70;;;;;;5043610;28;20029;-71
2022/07/06 06:02:42;;;;;;;9.73;3.05;;;15.00;97.40;;;;;;5044800;28;20025;-69
2022/07/06 06:05:10;;;;;;;7.90;1.80;;;15.00;97.50;;;;;;5038686;28;20025;-68
2022/07/06 06:07:39;;;;;;;10.02;1.60;;;14.90;97.50;;;;;;5044173;28;20029;-68
2022/07/06 06:10:08;;;;;;;5.30;1.70;;;14.90;97.50;;;;;;5043088;28;20025;-68
2022/07/06 06:12:36;;;;;;;8.55;1.90;;;14.80;97.60;;;;;;5048321;28;20029;-69
2022/07/06 06:15:04;;;;;;;6.32;1.45;;;14.80;97.50;;;;;;5045502;28;20036;-69
2022/07/06 06:17:32;;;;;;;8.18;1.90;;;14.80;97.50;;;;;;5049833;28;20514;-68
2022/07/06 06:20:00;;;;;;;9.60;1.92;;;14.80;97.40;;;;;;5046856;28;20028;-69
2022/07/06 06:22:27;;;;;;;11.27;2.28;;;14.70;97.40;;;;;;5043362;28;20025;-69
2022/07/06 06:24:54;;;;;;;7.45;2.95;;;14.70;97.20;;;;;;5047398;28;20036;-68
2022/07/06 06:27:22;;;;;;;5.93;1.60;;;14.70;97.10;;;;;;5044359;28;20418;-67
2022/07/06 06:29:49;;;;;;;8.40;2.65;;;14.70;97.30;;;;;;5043948;28;20021;-69
2022/07/06 06:32:16;;;;;;;8.80;3.45;;;14.70;97.10;;;;;;5045645;28;20025;-68
2022/07/06 06:34:43;;;;;;;4.80;1.77;;;14.60;97.20;;;;;;5046675;28;20041;-68
2022/07/06 06:37:10;;;;;;;6.82;2.20;;;14.60;97.00;;;;;;5045101;28;20028;-68
2022/07/06 06:39:38;;;;;;;8.55;1.75;;;14.50;97.00;;;;;;5044977;28;20727;-68
2022/07/06 06:42:05;;;;;;;11.20;1.83;;;14.50;96.80;;;;;;5044265;28;20102;-68
2022/07/06 06:44:32;;;;;;;7.25;2.20;;;14.50;96.80;;;;;;5043315;28;20021;-69
2022/07/06 06:47:00;;;;;;;8.30;2.13;;;14.40;96.90;;;;;;5044720;28;20033;-69
2022/07/06 06:49:27;;;;;;;5.22;3.00;;;14.40;96.90;;;;;;5044902;28;20500;-69
2022/07/06 06:51:54;;;;;;;6.30;2.45;;;14.40;97.10;;;;;;5047936;28;20029;-69
2022/07/06 06:54:21;;;;;;;6.68;1.55;;;14.30;97.20;;;;;;5043803;28;20185;-69
2022/07/06 06:56:49;;;;;;;5.80;1.30;;;14.30;97.30;;;;;;5041544;28;20128;-68
2022/07/06 06:59:16;;;;;;;4.82;1.88;;;14.20;97.30;;;;;;5042141;28;20008;-68
2022/07/06 07:01:43;;;;;;;7.30;1.70;;;14.20;97.50;;;;;;5044176;28;20024;-68
2022/07/06 07:04:11;;;;;;;8.30;1.63;;;14.10;97.50;;;;;;5043388;28;20385;-69
2022/07/06 07:06:38;;;;;;;13.45;2.08;;;14.10;97.70;;;;;;5044690;28;20068;-70
2022/07/06 07:09:06;;;;;;;9.23;1.45;;;14.10;97.80;;;;;;5046911;28;20029;-69
2022/07/06 07:11:33;;;;;;;11.48;2.85;;;14.00;97.90;;;;;;5044179;28;20029;-69
2022/07/06 07:14:01;;;;;;;9.55;2.33;;;14.00;98.00;;;;;;5042485;28;20025;-70
2022/07/06 07:16:29;;;;;;;11.32;3.83;;;14.00;98.10;;;;;;5039827;28;20052;-71
2022/07/06 07:18:56;;;;;;;8.30;1.63;;;13.90;98.20;;;;;;5039664;28;20036;-71
2022/07/06 07:21:23;;;;;;;12.23;2.08;;;13.90;98.20;;;;;;5038756;28;20029;-72
2022/07/06 07:23:50;;;;;;;9.15;1.40;;;13.90;98.20;;;;;;5043895;28;20047;-72
2022/07/06 07:26:18;;;;;;;8.68;1.60;;;13.90;98.50;;;;;;5041728;28;20037;-71
2022/07/06 07:28:46;;;;;;;12.52;1.58;;;13.90;98.30;;;;;;5043373;28;20071;-72
2022/07/06 07:31:13;;;;;;;7.60;1.42;;;13.80;98.10;;;;;;5045038;28;20035;-72
2022/07/06 07:33:41;;;;;;;10.90;1.42;;;13.90;98.10;;;;;;5047617;28;20021;-72
2022/07/06 07:36:08;;;;;;;4.78;1.20;;;13.90;98.00;;;;;;5043576;28;20021;-71
2022/07/06 07:38:35;;;;;;;9.70;1.50;;;13.90;98.00;;;;;;5046406;28;20038;-71
2022/07/06 07:41:02;;;;;;;7.95;1.20;;;13.90;98.00;;;;;;5048931;28;20094;-72
2022/07/06 07:43:30;;;;;;;4.63;1.45;;;13.90;97.80;;;;;;5044227;28;20022;-71
2022/07/06 07:45:57;;;;;;;6.03;1.02;;;13.90;97.80;;;;;;5046099;28;20072;-70
2022/07/06 07:48:24;;;;;;;6.40;1.27;;;13.90;97.80;;;;;;5045131;28;20025;-72
2022/07/06 07:50:52;;;;;;;12.85;2.08;;;13.90;97.60;;;;;;5044960;28;20267;-72
2022/07/06 07:53:19;;;;;;;6.18;0.90;;;13.90;97.60;;;;;;5046954;28;20512;-71
2022/07/06 07:55:46;;;;;;;7.55;1.70;;;13.80;97.60;;;;;;5048890;28;20025;-69
2022/07/06 07:58:13;;;;;;;3.92;1.00;;;13.80;97.60;;;;;;5033802;28;20037;-70
2022/07/06 08:00:40;;;;;;;6.05;1.10;;;13.80;97.60;;;;;;5045869;28;20051;-71
2022/07/06 08:03:08;;;;;;;5.53;1.38;;;13.80;97.60;;;;;;5049052;28;20064;-70
2022/07/06 08:05:35;;;;;;;5.30;1.10;;;13.80;97.60;;;;;;5045385;28;20029;-71
2022/07/06 08:08:02;;;;;;;8.82;1.48;;;13.80;97.50;;;;;;5042863;28;20040;-71
2022/07/06 08:10:30;;;;;;;6.07;1.65;;;13.80;97.50;;;;;;5044048;28;20651;-71
2022/07/06 08:12:57;;;;;;;4.88;1.27;;;13.90;97.40;;;;;;5040648;28;20115;-71
2022/07/06 08:15:25;;;;;;;7.05;1.48;;;13.90;97.30;;;;;;5045396;28;20533;-70
2022/07/06 08:17:52;;;;;;;6.05;1.05;;;13.90;97.20;;;;;;5046416;28;20076;-71
2022/07/06 08:20:19;;;;;;;9.45;1.45;;;13.90;97.20;;;;;;5049794;28;20039;-69
2022/07/06 08:22:46;;;;;;;5.47;1.38;;;13.90;97.20;;;;;;5048103;28;20052;-71
2022/07/06 08:25:14;;;;;;;3.38;1.30;;;13.90;97.30;;;;;;5045138;28;20043;-71
2022/07/06 08:27:41;;;;;;;7.50;1.60;;;13.90;97.30;;;;;;5043804;28;20293;-70
2022/07/06 08:30:09;;;;;;;6.57;1.88;;;13.90;97.20;;;;;;5041573;28;20025;-72
2022/07/06 08:32:43;;;;;;;7.93;1.40;;;13.80;97.20;;;;;;5044619;28;20049;-70
2022/07/06 08:35:11;;;;;;;4.25;1.20;;;13.80;97.30;;;;;;5052387;28;20031;-71
2022/07/06 08:37:39;;;;;;;4.32;1.10;;;13.80;97.30;;;;;;5042091;28;20116;-72
2022/07/06 08:40:07;;;;;;;8.23;1.73;;;13.70;97.40;;;;;;5049209;28;20083;-70
2022/07/06 08:42:36;;;;;;;7.68;1.58;;;13.70;97.30;;;;;;5042061;28;20035;-71
2022/07/06 08:45:06;;;;;;;2.97;1.02;;;13.70;97.30;;;;;;5044428;28;20036;-71
2022/07/06 08:47:35;;;;;;;2.95;0.90;;;13.70;97.20;;;;;;5046133;28;20033;-72
2022/07/06 08:50:03;;;;;;;8.27;1.25;;;13.70;97.30;;;;;;5039456;28;20029;-65
2022/07/06 08:52:32;;;;;;;4.30;1.15;;;13.70;97.30;;;;;;5032748;28;20486;-71
2022/07/06 08:55:00;;;;;;;4.30;1.17;;;13.80;97.10;;;;;;5041034;28;20386;-68
2022/07/06 08:57:31;;;;;;;9.93;2.75;;;13.70;97.00;;;;;;5051246;28;20136;-70
2022/07/06 09:00:01;;;;;;;7.70;0.90;;;13.70;97.10;;;;;;5037785;28;20163;-70
2022/07/06 09:02:31;;;;;;;9.73;1.65;;;13.70;97.30;;;;;;5045750;28;20032;-70
2022/07/06 09:05:05;;;;;;;6.30;1.40;;;13.70;97.30;;;;;;5030681;28;20026;-70
2022/07/06 09:07:34;;;;;;;4.28;1.10;;;13.70;97.50;;;;;;5029675;28;20050;-68
2022/07/06 09:10:05;;;;;;;6.90;0.93;;;13.70;97.70;;;;;;5046738;28;20040;-69
2022/07/06 09:12:32;;;;;;;9.30;1.55;;;13.70;97.70;;;;;;5033622;28;20029;-68
2022/07/06 09:15:05;;;;;;;10.95;2.25;;;13.60;98.00;;;;;;5048420;28;20025;-68
2022/07/06 09:17:33;;;;;;;7.82;1.58;;;13.60;98.10;;;;;;5041123;28;20077;-66
2022/07/06 09:20:01;;;;;;;14.55;1.83;;;13.50;98.30;;;;;;5044366;28;20021;-69
2022/07/06 09:22:33;;;;;;;4.22;1.48;;;13.50;98.30;;;;;;5049235;28;20031;-69
2022/07/06 09:25:07;;;;;;;4.03;1.02;;;13.50;98.40;;;;;;5048324;28;20029;-69
2022/07/06 09:27:45;;;;;;;7.40;1.45;;;13.40;98.40;;;;;;5043760;28;20033;-69
2022/07/06 09:30:14;;;;;;;7.88;1.38;;;13.50;98.60;;;;;;5033652;28;20084;-69
2022/07/06 09:32:46;;;;;;;4.22;0.93;;;13.40;98.40;;;;;;5030555;28;20034;-69
2022/07/06 09:35:32;;;;;;;4.45;0.90;;;13.40;98.40;;;;;;5046654;28;20064;-68
2022/07/06 09:38:19;;;;;;;6.75;1.25;;;13.40;98.30;;;;;;5042758;28;20026;-68
2022/07/06 09:40:48;;;;;;;4.30;1.30;;;13.40;98.40;;;;;;5029951;28;20033;-68
2022/07/06 09:43:25;;;;;;;10.45;1.05;;;13.40;98.40;;;;;;5036737;28;20021;-67
2022/07/06 09:45:56;;;;;;;7.47;2.47;;;13.40;98.50;;;;;;5044517;28;20189;-68
2022/07/06 09:48:28;;;;;;;4.75;1.35;;;13.30;98.50;;;;;;5046511;28;20077;-68
2022/07/06 09:51:06;;;;;;;7.85;1.20;;;13.30;98.50;;;;;;5043225;28;20036;-69
2022/07/06 09:53:37;;;;;;;7.45;1.20;;;13.30;98.60;;;;;;5038358;28;20486;-67
2022/07/06 09:56:05;;;;;;;9.32;1.15;;;13.30;98.60;;;;;;5032649;28;20114;-69
2022/07/06 09:58:32;;;;;;;5.68;1.40;;;13.20;98.60;;;;;;5049269;28;20037;-68
2022/07/06 10:00:59;;;;;;;9.73;3.38;;;13.20;98.70;;;;;;5049164;28;20031;-70
2022/07/06 10:03:29;;;;;;;4.50;1.40;;;13.20;98.80;;;;;;5044505;28;20116;-69
2022/07/06 10:05:59;;;;;;;8.93;1.10;;;13.20;98.80;;;;;;5048504;28;20033;-69
2022/07/06 10:08:28;;;;;;;5.47;1.10;;;13.20;98.80;;;;;;5049463;28;20051;-68
2022/07/06 10:10:56;;;;;;;3.65;1.27;;;13.10;98.80;;;;;;5041822;28;20095;-69
2022/07/06 10:13:30;;;;;;;7.60;1.40;;;13.20;98.90;;;;;;5034423;28;20917;-67
2022/07/06 10:15:57;;;;;;;10.25;1.27;;;13.20;98.80;;;;;;5035719;28;20028;-69
2022/07/06 10:18:26;;;;;;;9.15;1.67;;;13.20;98.90;;;;;;5035259;28;20113;-69
2022/07/06 10:20:53;;;;;;;8.30;2.20;;;13.20;98.80;;;;;;5048616;28;20029;-68
2022/07/06 10:23:24;;;;;;;15.15;1.52;;;13.20;98.70;;;;;;5046379;28;20048;-69
2022/07/06 10:25:52;;;;;;;8.23;1.55;;;13.20;98.80;;;;;;5029945;28;20055;-75
2022/07/06 10:28:21;;;;;;;8.48;1.20;;;13.20;98.80;;;;;;5037523;28;20028;-68
2022/07/06 10:30:50;;;;;;;6.97;1.70;;;13.20;98.70;;;;;;5033249;28;20112;-69
2022/07/06 10:33:18;;;;;;;6.50;1.63;;;13.20;98.70;;;;;;5027294;28;20026;-68
2022/07/06 10:35:46;;;;;;;7.13;1.55;;;13.20;98.70;;;;;;5026583;28;20045;-70
2022/07/06 10:38:13;;;;;;;5.03;1.10;;;13.20;98.70;;;;;;5040981;28;20025;-70
2022/07/06 10:43:43;;;;;;;7.60;1.45;;;13.30;98.60;;;;;;5027997;28;20036;-68
2022/07/06 10:46:16;;;;;;;6.90;1.65;;;13.30;98.60;;;;;;5039414;28;20056;-70
2022/07/06 10:48:51;;;;;;;9.00;1.60;;;13.20;98.50;;;;;;5033266;28;20088;-68
2022/07/06 10:51:33;;;;;;;3.90;1.00;;;13.30;98.50;;;;;;5045904;28;20504;-69
2022/07/06 10:54:05;;;;;;;10.05;1.38;;;13.30;98.50;;;;;;5048837;28;20037;-69
2022/07/06 10:56:40;;;;;;;5.70;1.83;;;13.20;98.40;;;;;;5048640;28;20058;-69
2022/07/06 10:59:14;;;;;;;7.10;1.23;;;13.20;98.50;;;;;;5039411;28;20053;-68
2022/07/06 11:02:01;;;;;;;7.57;1.20;;;13.20;98.50;;;;;;5044903;28;20039;-69
2022/07/06 11:04:32;;;;;;;7.05;1.23;;;13.20;98.50;;;;;;5047428;28;20067;-68
2022/07/06 11:07:15;;;;;;;6.47;1.85;;;13.20;98.50;;;;;;5048064;28;20029;-67
2022/07/06 11:09:56;;;;;;;8.40;2.17;;;13.20;98.40;;;;;;5038127;28;20422;-70
2022/07/06 11:12:24;;;;;;;5.97;1.00;;;13.20;98.30;;;;;;5035018;28;20056;-68
2022/07/06 11:14:53;;;;;;;6.03;1.33;;;13.20;98.30;;;;;;5038474;28;20035;-68
2022/07/06 11:17:22;;;;;;;7.00;1.30;;;13.30;98.20;;;;;;5033411;28;20105;-69
2022/07/06 11:19:58;;;;;;;9.88;1.88;;;13.30;98.10;;;;;;5033497;28;20033;-67
2022/07/06 11:22:30;;;;;;;3.60;1.80;;;13.30;98.10;;;;;;5030155;28;20041;-68
2022/07/06 11:24:58;;;;;;;8.30;1.30;;;13.30;98.10;;;;;;5030458;28;20033;-69
2022/07/06 11:27:25;;;;;;;3.50;1.20;;;13.30;97.80;;;;;;5029514;28;20095;-68
2022/07/06 11:29:53;;;;;;;4.28;1.30;;;13.30;97.90;;;;;;5042932;28;20057;-69
2022/07/06 11:32:26;;;;;;;7.32;1.38;;;13.30;97.70;;;;;;5034884;28;20029;-68
2022/07/06 11:34:53;;;;;;;5.07;1.38;;;13.30;97.70;;;;;;5037715;28;20075;-68
2022/07/06 11:37:23;;;;;;;4.57;1.60;;;13.40;97.40;;;;;;5038386;28;20028;-69
2022/07/06 11:39:50;;;;;;;5.47;1.10;;;13.40;97.30;;;;;;5045332;28;20036;-68
2022/07/06 11:42:18;;;;;;;4.88;1.02;;;13.40;96.90;;;;;;5037659;28;20056;-69
2022/07/06 11:44:50;;;;;;;8.93;2.33;;;13.40;96.90;;;;;;5029391;28;20021;-69
2022/07/06 11:47:18;;;;;;;2.72;1.23;;;13.40;96.80;;;;;;5026466;28;20040;-67
2022/07/06 11:49:53;;;;;;;4.32;1.33;;;13.50;96.70;;;;;;5036267;28;20045;-68
2022/07/06 11:52:23;;;;;;;4.82;1.20;;;13.50;96.70;;;;;;5038217;28;20437;-67
2022/07/06 11:54:57;;;;;;;7.80;1.30;;;13.50;96.60;;;;;;5028430;28;20045;-69
2022/07/06 11:57:24;;;;;;;6.50;0.90;;;13.50;96.40;;;;;;5032968;28;20029;-68
2022/07/06 11:59:52;;;;;;;5.72;1.05;;;13.50;96.20;;;;;;5034029;28;20109;-70
2022/07/06 12:02:19;;;;;;;8.82;1.17;;;13.50;96.40;;;;;;5038886;28;20029;-69
2022/07/06 12:04:47;;;;;;;7.10;2.10;;;13.50;96.50;;;;;;5019144;28;20127;-68
2022/07/06 12:07:16;;;;;;;8.20;1.35;;;13.50;96.40;;;;;;5034782;28;20091;-66
2022/07/06 12:09:46;;;;;;;6.85;1.42;;;13.50;96.60;;;;;;5042902;28;20037;-68
2022/07/06 12:12:16;;;;;;;4.75;1.40;;;13.40;97.00;;;;;;5042598;28;20143;-68
2022/07/06 12:14:44;;;;;;;2.72;1.08;;;13.40;97.00;;;;;;5033103;28;20029;-69
2022/07/06 12:17:15;;;;;;;11.05;1.77;;;13.30;97.50;;;;;;5028938;28;20068;-67
2022/07/06 12:19:46;;;;;;;6.40;1.27;;;13.20;97.80;;;;;;5027123;28;20021;-66
2022/07/06 12:22:24;;;;;;;16.50;2.22;;;13.10;98.10;;;;;;5030484;28;20037;-67
2022/07/06 12:24:51;;;;;;;4.43;1.40;;;13.10;98.20;;;;;;5040898;28;20032;-66
2022/07/06 12:27:20;;;;;;;6.20;1.50;;;13.10;98.40;;;;;;5031670;28;20030;-68
2022/07/06 12:29:49;;;;;;;9.02;2.10;;;13.00;98.40;;;;;;5029475;28;20104;-68
2022/07/06 12:32:23;;;;;;;5.30;1.38;;;13.10;98.30;;;;;;5039133;28;20036;-69
2022/07/06 12:35:05;;;;;;;9.95;1.52;;;13.00;98.20;;;;;;5037416;28;20033;-69
2022/07/06 12:37:32;;;;;;;6.40;1.83;;;13.00;98.20;;;;;;5045103;28;20037;-69
2022/07/06 12:40:00;;;;;;;6.85;1.48;;;13.00;98.20;;;;;;5038447;28;20116;-67
2022/07/06 12:42:28;;;;;;;7.40;1.42;;;13.10;98.10;;;;;;5043945;28;20167;-69
2022/07/06 12:44:55;;;;;;;3.03;1.02;;;13.10;98.10;;;;;;5030695;28;20029;-67
2022/07/06 12:47:24;;;;;;;4.70;1.15;;;13.10;98.00;;;;;;5035534;28;20076;-68
2022/07/06 12:50:10;;;;;;;5.28;1.55;;;13.10;98.10;;;;;;5031269;28;20067;-68
2022/07/06 12:52:37;;;;;;;10.70;1.42;;;13.10;98.20;;;;;;5034049;28;20084;-67
2022/07/06 12:55:07;;;;;;;6.13;1.10;;;13.10;98.30;;;;;;5003599;28;20060;-67
2022/07/06 12:57:51;;;;;;;5.80;1.20;;;13.10;98.30;;;;;;5037033;28;20108;-67